createdAt,value
2024-04-10T00:00:59.000Z,25.13
2024-04-10T00:01:59.274Z,25.12
2024-04-10T00:02:58.869Z,25.13
2024-04-10T00:04:01.029Z,25.13
2024-04-10T00:04:59.169Z,25.13
2024-04-10T00:05:59.134Z,25.12
2024-04-10T00:06:59.131Z,25.12
2024-04-10T00:07:59.913Z,25.12
2024-04-10T00:08:59.253Z,25.12
2024-04-10T00:09:59.280Z,25.11
2024-04-10T00:10:59.420Z,25.11
2024-04-10T00:11:59.510Z,25.11
2024-04-10T00:12:59.432Z,25.11
2024-04-10T00:13:59.690Z,25.12
2024-04-10T00:14:59.512Z,25.11
2024-04-10T00:15:59.620Z,25.11
2024-04-10T00:16:59.650Z,25.11
2024-04-10T00:17:59.826Z,25.10
2024-04-10T00:19:00.086Z,25.11
2024-04-10T00:19:59.874Z,25.10
2024-04-10T00:20:59.915Z,25.10
2024-04-10T00:22:00.046Z,25.10
2024-04-10T00:23:00.058Z,25.10
2024-04-10T00:24:00.071Z,25.10
2024-04-10T00:25:00.166Z,25.09
2024-04-10T00:26:01.067Z,25.09
2024-04-10T00:27:00.247Z,25.09
2024-04-10T00:28:00.321Z,25.09
2024-04-10T00:29:00.457Z,25.09
2024-04-10T00:30:00.545Z,25.08
2024-04-10T00:31:00.439Z,25.08
2024-04-10T00:32:00.570Z,25.09
2024-04-10T00:33:00.696Z,25.09
2024-04-10T00:34:00.719Z,25.08
2024-04-10T00:35:00.769Z,25.08
2024-04-10T00:36:00.707Z,25.08
2024-04-10T00:37:00.847Z,25.08
2024-04-10T00:38:00.976Z,25.07
2024-04-10T00:39:00.978Z,25.08
2024-04-10T00:40:01.017Z,25.08
2024-04-10T00:41:01.515Z,25.07
2024-04-10T00:42:01.112Z,25.07
2024-04-10T00:43:01.140Z,25.08
2024-04-10T00:44:01.261Z,25.08
2024-04-10T00:45:01.338Z,25.08
2024-04-10T00:46:01.348Z,25.08
2024-04-10T00:47:01.557Z,25.07
2024-04-10T00:48:01.604Z,25.07
2024-04-10T00:49:01.607Z,25.07
2024-04-10T00:50:01.598Z,25.07
2024-04-10T00:51:01.700Z,25.06
2024-04-10T00:52:01.860Z,25.07
2024-04-10T00:53:01.725Z,25.05
2024-04-10T00:54:01.761Z,25.06
2024-04-10T00:55:01.802Z,25.06
2024-04-10T00:56:01.949Z,25.06
2024-04-10T00:57:01.929Z,25.06
2024-04-10T00:58:01.999Z,25.05
2024-04-10T00:59:02.155Z,25.05
2024-04-10T01:00:02.080Z,25.06
2024-04-10T01:01:02.199Z,25.05
2024-04-10T01:02:02.292Z,25.05
2024-04-10T01:03:02.333Z,25.05
2024-04-10T01:04:02.611Z,25.05
2024-04-10T01:05:02.567Z,25.05
2024-04-10T01:06:02.466Z,25.05
2024-04-10T01:07:02.507Z,25.05
2024-04-10T01:08:02.651Z,25.04
2024-04-10T01:09:02.713Z,25.04
2024-04-10T01:10:02.691Z,25.04
2024-04-10T01:11:02.814Z,25.04
2024-04-10T01:12:02.958Z,25.04
2024-04-10T01:13:02.941Z,25.04
2024-04-10T01:14:02.986Z,25.04
2024-04-10T01:15:02.987Z,25.04
2024-04-10T01:16:03.110Z,25.03
2024-04-10T01:17:03.335Z,25.02
2024-04-10T01:18:03.272Z,25.03
2024-04-10T01:19:03.280Z,25.03
2024-04-10T01:20:03.316Z,25.02
2024-04-10T01:21:03.389Z,25.02
2024-04-10T01:22:03.491Z,25.02
2024-04-10T01:23:03.658Z,25.02
2024-04-10T01:24:03.568Z,25.01
2024-04-10T01:25:03.574Z,25.01
2024-04-10T01:26:03.680Z,25.01
2024-04-10T01:27:03.987Z,25.01
2024-04-10T01:28:03.841Z,25.01
2024-04-10T01:29:03.977Z,25.01
2024-04-10T01:30:03.905Z,25.01
2024-04-10T01:31:03.966Z,25.01
2024-04-10T01:32:04.195Z,25.01
2024-04-10T01:33:04.182Z,25.01
2024-04-10T01:34:04.339Z,25.01
2024-04-10T01:35:04.202Z,25.01
2024-04-10T01:36:04.244Z,25.01
2024-04-10T01:37:04.352Z,25.00
2024-04-10T01:38:04.405Z,25.01
2024-04-10T01:39:04.437Z,25.00
2024-04-10T01:40:04.561Z,25.00
2024-04-10T01:41:04.627Z,25.00
2024-04-10T01:42:04.624Z,24.99
2024-04-10T01:43:04.651Z,25.00
2024-04-10T01:44:04.757Z,25.00
2024-04-10T01:45:04.774Z,25.00
2024-04-10T01:46:04.829Z,24.99
2024-04-10T01:47:04.996Z,25.00
2024-04-10T01:48:05.006Z,24.99
2024-04-10T01:49:05.052Z,24.99
2024-04-10T01:50:05.216Z,24.99
2024-04-10T01:51:05.134Z,24.99
2024-04-10T01:52:05.186Z,24.98
2024-04-10T01:53:05.366Z,24.98
2024-04-10T01:54:05.390Z,24.98
2024-04-10T01:55:05.962Z,24.98
2024-04-10T01:56:05.490Z,24.98
2024-04-10T01:57:05.541Z,24.98
2024-04-10T01:58:05.593Z,24.97
2024-04-10T01:59:05.711Z,24.97
2024-04-10T02:00:05.647Z,24.97
2024-04-10T02:01:05.739Z,24.97
2024-04-10T02:02:05.866Z,24.98
2024-04-10T02:03:05.960Z,24.98
2024-04-10T02:04:05.960Z,24.97
2024-04-10T02:05:06.076Z,24.97
2024-04-10T02:06:06.044Z,24.97
2024-04-10T02:07:06.055Z,24.97
2024-04-10T02:08:06.130Z,24.97
2024-04-10T02:09:06.239Z,24.97
2024-04-10T02:10:06.277Z,24.96
2024-04-10T02:11:06.418Z,24.96
2024-04-10T02:12:06.664Z,24.97
2024-04-10T02:13:06.565Z,24.96
2024-04-10T02:14:06.559Z,24.96
2024-04-10T02:15:06.559Z,24.95
2024-04-10T02:16:06.922Z,24.95
2024-04-10T02:17:06.859Z,24.95
2024-04-10T02:18:06.814Z,24.95
2024-04-10T02:19:06.790Z,24.95
2024-04-10T02:20:07.014Z,24.95
2024-04-10T02:21:06.920Z,24.95
2024-04-10T02:22:07.035Z,24.94
2024-04-10T02:23:07.104Z,24.95
2024-04-10T02:24:07.092Z,24.94
2024-04-10T02:25:07.140Z,24.94
2024-04-10T02:26:07.291Z,24.94
2024-04-10T02:27:07.265Z,24.94
2024-04-10T02:28:07.345Z,24.95
2024-04-10T02:29:07.351Z,24.94
2024-04-10T02:30:07.458Z,24.94
2024-04-10T02:31:07.465Z,24.94
2024-04-10T02:32:07.703Z,24.94
2024-04-10T02:33:07.711Z,24.94
2024-04-10T02:34:07.724Z,24.93
2024-04-10T02:35:07.749Z,24.94
2024-04-10T02:36:07.810Z,24.94
2024-04-10T02:37:09.838Z,24.93
2024-04-10T02:38:08.014Z,24.93
2024-04-10T02:39:07.968Z,24.94
2024-04-10T02:40:08.117Z,24.93
2024-04-10T02:41:08.091Z,24.93
2024-04-10T02:42:08.121Z,24.93
2024-04-10T02:43:08.201Z,24.92
2024-04-10T02:44:08.320Z,24.93
2024-04-10T02:45:08.317Z,24.92
2024-04-10T02:46:08.505Z,24.92
2024-04-10T02:47:08.561Z,24.92
2024-04-10T02:48:08.562Z,24.91
2024-04-10T02:49:08.575Z,24.91
2024-04-10T02:50:08.712Z,24.92
2024-04-10T02:51:08.719Z,24.91
2024-04-10T02:52:08.764Z,24.91
2024-04-10T02:53:09.053Z,24.91
2024-04-10T02:54:08.852Z,24.91
2024-04-10T02:55:08.974Z,24.91
2024-04-10T02:56:09.025Z,24.91
2024-04-10T02:57:09.103Z,24.91
2024-04-10T02:58:09.110Z,24.90
2024-04-10T02:59:09.254Z,24.90
2024-04-10T03:00:10.018Z,24.90
2024-04-10T03:01:09.308Z,24.90
2024-04-10T03:02:09.467Z,24.90
2024-04-10T03:03:09.449Z,24.90
2024-04-10T03:04:09.603Z,24.90
2024-04-10T03:05:09.585Z,24.89
2024-04-10T03:06:09.675Z,24.89
2024-04-10T03:07:09.633Z,24.89
2024-04-10T03:08:09.740Z,24.89
2024-04-10T03:09:09.774Z,24.89
2024-04-10T03:10:09.818Z,24.89
2024-04-10T03:11:10.137Z,24.88
2024-04-10T03:12:10.041Z,24.89
2024-04-10T03:13:10.012Z,24.88
2024-04-10T03:14:10.104Z,24.88
2024-04-10T03:15:10.144Z,24.88
2024-04-10T03:16:10.275Z,24.88
2024-04-10T03:17:10.403Z,24.88
2024-04-10T03:18:10.414Z,24.88
2024-04-10T03:19:10.385Z,24.88
2024-04-10T03:20:10.514Z,24.87
2024-04-10T03:21:10.565Z,24.88
2024-04-10T03:22:10.592Z,24.88
2024-04-10T03:23:10.920Z,24.88
2024-04-10T03:24:10.720Z,24.87
2024-04-10T03:25:10.849Z,24.87
2024-04-10T03:26:10.986Z,24.87
2024-04-10T03:27:10.951Z,24.87
2024-04-10T03:28:10.932Z,24.87
2024-04-10T03:29:11.046Z,24.86
2024-04-10T03:30:11.088Z,24.86
2024-04-10T03:31:11.152Z,24.87
2024-04-10T03:32:11.498Z,24.86
2024-04-10T03:33:11.353Z,24.86
2024-04-10T03:34:11.340Z,24.86
2024-04-10T03:35:11.474Z,24.86
2024-04-10T03:36:11.495Z,24.86
2024-04-10T03:37:11.649Z,24.86
2024-04-10T03:38:11.640Z,24.85
2024-04-10T03:39:11.721Z,24.86
2024-04-10T03:40:11.759Z,24.85
2024-04-10T03:41:11.868Z,24.86
2024-04-10T03:42:11.926Z,24.85
2024-04-10T03:43:11.966Z,24.85
2024-04-10T03:44:12.133Z,24.84
2024-04-10T03:45:12.170Z,24.85
2024-04-10T03:46:12.159Z,24.84
2024-04-10T03:47:12.387Z,24.84
2024-04-10T03:48:12.555Z,24.84
2024-04-10T03:49:12.422Z,24.84
2024-04-10T03:50:13.364Z,24.84
2024-04-10T03:51:12.522Z,24.84
2024-04-10T03:52:12.574Z,24.84
2024-04-10T03:53:12.699Z,24.84
2024-04-10T03:54:12.683Z,24.84
2024-04-10T03:55:12.732Z,24.84
2024-04-10T03:56:12.880Z,24.84
2024-04-10T03:57:12.946Z,24.83
2024-04-10T03:58:12.968Z,24.84
2024-04-10T03:59:13.022Z,24.84
2024-04-10T04:00:13.266Z,24.83
2024-04-10T04:01:13.342Z,24.83
2024-04-10T04:02:13.363Z,24.83
2024-04-10T04:03:13.437Z,24.83
2024-04-10T04:04:13.364Z,24.82
2024-04-10T04:05:13.477Z,24.82
2024-04-10T04:06:13.478Z,24.82
2024-04-10T04:07:13.647Z,24.82
2024-04-10T04:08:13.787Z,24.82
2024-04-10T04:09:13.697Z,24.81
2024-04-10T04:11:13.948Z,24.81
2024-04-10T04:12:14.076Z,24.82
2024-04-10T04:13:13.993Z,24.83
2024-04-10T04:14:14.108Z,24.83
2024-04-10T04:15:14.143Z,24.83
2024-04-10T04:16:14.202Z,24.84
2024-04-10T04:17:14.214Z,24.83
2024-04-10T04:18:14.379Z,24.83
2024-04-10T04:19:14.388Z,24.82
2024-04-10T04:20:14.688Z,24.82
2024-04-10T04:21:14.452Z,24.81
2024-04-10T04:22:14.554Z,24.79
2024-04-10T04:23:14.631Z,24.79
2024-04-10T04:24:14.671Z,24.79
2024-04-10T04:25:14.743Z,24.78
2024-04-10T04:26:14.845Z,24.78
2024-04-10T04:27:14.856Z,24.78
2024-04-10T04:28:14.968Z,24.79
2024-04-10T04:29:14.955Z,24.78
2024-04-10T04:30:15.055Z,24.78
2024-04-10T04:31:15.566Z,24.78
2024-04-10T04:32:15.311Z,24.75
2024-04-10T04:33:15.438Z,24.73
2024-04-10T04:34:15.389Z,24.71
2024-04-10T04:35:15.390Z,24.70
2024-04-10T04:36:22.669Z,24.66
2024-04-10T04:37:22.695Z,24.68
2024-04-10T04:38:22.740Z,24.67
2024-04-10T04:39:22.679Z,24.68
2024-04-10T04:40:22.657Z,24.68
2024-04-10T04:41:22.864Z,24.68
2024-04-10T04:42:22.694Z,24.68
2024-04-10T04:43:22.790Z,24.69
2024-04-10T04:44:22.740Z,24.69
2024-04-10T04:45:22.722Z,24.68
2024-04-10T04:46:22.753Z,24.69
2024-04-10T04:47:23.061Z,24.69
2024-04-10T04:48:23.035Z,24.70
2024-04-10T04:49:22.735Z,24.69
2024-04-10T04:50:22.804Z,24.69
2024-04-10T04:51:22.711Z,24.70
2024-04-10T04:52:22.743Z,24.70
2024-04-10T04:53:22.815Z,24.70
2024-04-10T04:54:22.713Z,24.69
2024-04-10T04:55:22.694Z,24.69
2024-04-10T04:56:22.791Z,24.70
2024-04-10T04:57:22.699Z,24.70
2024-04-10T04:58:25.520Z,24.69
2024-04-10T04:59:22.886Z,24.69
2024-04-10T05:00:22.695Z,24.69
2024-04-10T05:01:22.779Z,24.69
2024-04-10T05:02:22.952Z,24.70
2024-04-10T05:03:22.855Z,24.69
2024-04-10T05:04:22.830Z,24.70
2024-04-10T05:05:23.105Z,24.69
2024-04-10T05:06:22.704Z,24.69
2024-04-10T05:07:22.702Z,24.69
2024-04-10T05:08:22.747Z,24.69
2024-04-10T05:09:22.714Z,24.70
2024-04-10T05:10:22.723Z,24.69
2024-04-10T05:11:23.068Z,24.69
2024-04-10T05:12:22.779Z,24.69
2024-04-10T05:13:22.726Z,24.69
2024-04-10T05:14:22.800Z,24.70
2024-04-10T05:15:22.738Z,24.70
2024-04-10T05:16:22.906Z,24.70
2024-04-10T05:17:22.745Z,24.69
2024-04-10T05:18:22.875Z,24.69
2024-04-10T05:19:22.738Z,24.70
2024-04-10T05:20:22.825Z,24.70
2024-04-10T05:21:22.752Z,24.70
2024-04-10T05:22:22.781Z,24.70
2024-04-10T05:23:22.831Z,24.70
2024-04-10T05:24:22.758Z,24.70
2024-04-10T05:25:23.022Z,24.70
2024-04-10T05:26:22.947Z,24.69
2024-04-10T05:27:22.978Z,24.69
2024-04-10T05:28:23.050Z,24.69
2024-04-10T05:29:23.090Z,24.70
2024-04-10T05:30:23.113Z,24.70
2024-04-10T05:31:23.107Z,24.69
2024-04-10T05:32:23.198Z,24.69
2024-04-10T05:33:23.245Z,24.69
2024-04-10T05:34:23.430Z,24.69
2024-04-10T05:35:23.201Z,24.68
2024-04-10T05:36:23.277Z,24.67
2024-04-10T05:37:23.221Z,24.68
2024-04-10T05:38:23.351Z,24.63
2024-04-10T05:39:23.393Z,24.54
2024-04-10T05:40:23.343Z,24.47
2024-04-10T05:41:24.394Z,24.38
2024-04-10T05:42:23.353Z,24.34
2024-04-10T05:43:23.539Z,24.31
2024-04-10T05:44:23.536Z,24.26
2024-04-10T05:45:23.538Z,24.18
2024-04-10T05:46:23.664Z,24.15
2024-04-10T05:47:23.767Z,24.16
2024-04-10T05:48:23.787Z,24.16
2024-04-10T05:49:23.797Z,24.19
2024-04-10T05:50:23.972Z,24.23
2024-04-10T05:51:23.874Z,24.26
2024-04-10T05:52:24.185Z,24.29
2024-04-10T05:53:24.350Z,24.33
2024-04-10T05:55:09.721Z,24.38
2024-04-10T05:56:09.663Z,24.43
2024-04-10T05:57:10.712Z,24.46
2024-04-10T05:58:09.670Z,24.49
2024-04-10T05:59:09.837Z,24.53
2024-04-10T06:00:09.942Z,24.56
2024-04-10T06:01:10.051Z,24.59
2024-04-10T06:02:09.749Z,24.62
2024-04-10T06:03:12.440Z,24.64
2024-04-10T06:04:09.813Z,24.66
2024-04-10T06:05:11.462Z,24.69
2024-04-10T06:06:09.693Z,24.70
2024-04-10T06:07:09.734Z,24.73
2024-04-10T06:08:09.898Z,24.76
2024-04-10T06:09:09.667Z,24.77
2024-04-10T06:10:09.663Z,24.79
2024-04-10T06:11:10.114Z,24.78
2024-04-10T06:12:10.007Z,24.74
2024-04-10T06:13:09.797Z,24.68
2024-04-10T06:14:09.813Z,24.63
2024-04-10T06:15:10.047Z,24.58
2024-04-10T06:16:09.792Z,24.52
2024-04-10T06:17:09.749Z,24.46
2024-04-10T06:18:12.406Z,24.42
2024-04-10T06:19:09.652Z,24.37
2024-04-10T06:20:09.732Z,24.34
2024-04-10T06:21:10.297Z,24.36
2024-04-10T06:22:09.773Z,24.37
2024-04-10T06:23:09.703Z,24.40
2024-04-10T06:24:09.713Z,24.43
2024-04-10T06:25:09.713Z,24.47
2024-04-10T06:26:09.830Z,24.50
2024-04-10T06:27:10.806Z,24.53
2024-04-10T06:28:09.779Z,24.56
2024-04-10T06:29:09.976Z,24.59
2024-04-10T06:30:09.910Z,24.62
2024-04-10T06:31:12.368Z,24.65
2024-04-10T06:32:10.310Z,24.67
2024-04-10T06:33:09.903Z,24.69
2024-04-10T06:34:09.778Z,24.72
2024-04-10T06:35:09.898Z,24.74
2024-04-10T06:36:09.698Z,24.77
2024-04-10T06:37:09.679Z,24.79
2024-04-10T06:38:09.851Z,24.82
2024-04-10T06:39:09.774Z,24.83
2024-04-10T06:40:09.717Z,24.85
2024-04-10T06:41:10.538Z,24.86
2024-04-10T06:42:10.078Z,24.83
2024-04-10T06:43:09.852Z,24.75
2024-04-10T06:44:09.854Z,24.60
2024-04-10T06:45:09.829Z,24.57
2024-04-10T06:46:09.734Z,24.57
2024-04-10T06:47:10.264Z,24.58
2024-04-10T06:48:09.870Z,24.59
2024-04-10T06:49:10.048Z,24.60
2024-04-10T06:50:10.407Z,24.62
2024-04-10T06:51:09.849Z,24.65
2024-04-10T06:52:09.784Z,24.67
2024-04-10T06:53:09.896Z,24.68
2024-04-10T06:54:09.770Z,24.70
2024-04-10T06:55:09.787Z,24.73
2024-04-10T06:56:09.934Z,24.75
2024-04-10T06:57:09.780Z,24.79
2024-04-10T06:58:09.811Z,24.80
2024-04-10T06:59:09.897Z,24.83
2024-04-10T07:00:09.925Z,24.84
2024-04-10T07:01:09.996Z,24.83
2024-04-10T07:02:09.776Z,24.80
2024-04-10T07:03:09.855Z,24.77
2024-04-10T07:04:09.873Z,24.76
2024-04-10T07:05:09.775Z,24.77
2024-04-10T07:06:09.752Z,24.78
2024-04-10T07:07:09.830Z,24.79
2024-04-10T07:08:09.917Z,24.81
2024-04-10T07:09:09.924Z,24.84
2024-04-10T07:10:10.387Z,24.84
2024-04-10T07:11:09.891Z,24.86
2024-04-10T07:12:10.305Z,24.88
2024-04-10T07:13:10.375Z,24.90
2024-04-10T07:14:10.014Z,24.92
2024-04-10T07:15:10.128Z,24.94
2024-04-10T07:16:10.247Z,24.94
2024-04-10T07:17:10.480Z,24.96
2024-04-10T07:18:10.110Z,24.99
2024-04-10T07:19:10.148Z,25.01
2024-04-10T07:20:10.495Z,25.03
2024-04-10T07:21:12.829Z,25.04
2024-04-10T07:22:10.275Z,25.05
2024-04-10T07:23:10.992Z,25.06
2024-04-10T07:24:10.988Z,25.07
2024-04-10T07:25:10.381Z,25.08
2024-04-10T07:26:10.288Z,25.08
2024-04-10T07:27:10.513Z,25.09
2024-04-10T07:28:10.304Z,25.11
2024-04-10T07:29:10.543Z,25.12
2024-04-10T07:30:10.371Z,25.13
2024-04-10T07:31:10.254Z,25.14
2024-04-10T07:32:10.408Z,25.14
2024-04-10T07:33:10.379Z,25.15
2024-04-10T07:34:10.716Z,25.10
2024-04-10T07:35:10.417Z,25.05
2024-04-10T07:36:10.683Z,24.97
2024-04-10T07:37:10.306Z,24.91
2024-04-10T07:38:10.335Z,24.72
2024-04-10T07:39:10.362Z,24.51
2024-04-10T07:40:10.296Z,24.38
2024-04-10T07:41:11.546Z,24.30
2024-04-10T07:42:10.355Z,24.28
2024-04-10T07:43:10.330Z,24.28
2024-04-10T07:44:10.402Z,24.28
2024-04-10T07:45:10.275Z,24.27
2024-04-10T07:46:14.921Z,24.26
2024-04-10T07:47:11.296Z,24.25
2024-04-10T07:48:10.645Z,24.26
2024-04-10T07:49:10.773Z,24.27
2024-04-10T07:50:10.754Z,24.26
2024-04-10T07:51:10.266Z,24.26
2024-04-10T07:52:10.913Z,24.25
2024-04-10T07:53:10.514Z,24.23
2024-04-10T07:54:10.293Z,24.24
2024-04-10T07:55:12.854Z,24.24
2024-04-10T07:56:10.430Z,24.24
2024-04-10T07:57:10.268Z,24.24
2024-04-10T07:58:10.303Z,24.24
2024-04-10T07:59:10.422Z,24.25
2024-04-10T08:00:10.350Z,24.23
2024-04-10T08:01:10.448Z,24.23
2024-04-10T08:02:10.966Z,24.22
2024-04-10T08:03:11.996Z,24.20
2024-04-10T08:04:10.677Z,24.20
2024-04-10T08:05:10.553Z,24.19
2024-04-10T08:06:10.561Z,24.19
2024-04-10T08:07:10.951Z,24.23
2024-04-10T08:08:13.377Z,24.27
2024-04-10T08:09:10.523Z,24.27
2024-04-10T08:10:10.781Z,24.28
2024-04-10T08:11:10.452Z,24.26
2024-04-10T08:12:10.721Z,24.23
2024-04-10T08:13:10.314Z,24.22
2024-04-10T08:14:11.220Z,24.20
2024-04-10T08:15:10.411Z,24.20
2024-04-10T08:16:10.490Z,24.18
2024-04-10T08:17:10.906Z,24.17
2024-04-10T08:18:10.407Z,24.15
2024-04-10T08:19:10.559Z,24.12
2024-04-10T08:20:10.434Z,24.08
2024-04-10T08:21:13.295Z,24.05
2024-04-10T08:22:10.488Z,24.04
2024-04-10T08:23:11.055Z,24.02
2024-04-10T08:24:11.005Z,24.03
2024-04-10T08:25:10.410Z,24.03
2024-04-10T08:26:10.467Z,24.01
2024-04-10T08:27:10.808Z,24.00
2024-04-10T08:28:10.480Z,23.84
2024-04-10T08:29:12.033Z,23.69
2024-04-10T08:30:10.452Z,23.62
2024-04-10T08:31:10.668Z,23.44
2024-04-10T08:32:11.992Z,23.27
2024-04-10T08:33:10.724Z,23.05
2024-04-10T08:34:10.402Z,22.87
2024-04-10T08:35:10.621Z,22.80
2024-04-10T08:36:10.642Z,22.67
2024-04-10T08:37:10.562Z,22.50
2024-04-10T08:38:10.534Z,22.37
2024-04-10T08:39:10.626Z,22.30
2024-04-10T08:40:10.332Z,22.22
2024-04-10T08:41:10.951Z,22.16
2024-04-10T08:42:10.429Z,22.13
2024-04-10T08:43:10.497Z,22.24
2024-04-10T08:44:10.395Z,22.40
2024-04-10T08:45:12.956Z,22.61
2024-04-10T08:46:10.840Z,22.80
2024-04-10T08:47:12.064Z,22.97
2024-04-10T08:48:12.796Z,23.13
2024-04-10T08:49:10.732Z,23.28
2024-04-10T08:50:10.885Z,23.40
2024-04-10T08:51:10.741Z,23.51
2024-04-10T08:52:10.828Z,23.61
2024-04-10T08:53:11.011Z,23.71
2024-04-10T08:54:11.390Z,23.80
2024-04-10T08:55:12.566Z,23.87
2024-04-10T08:56:11.960Z,23.94
2024-04-10T08:57:10.924Z,24.01
2024-04-10T08:58:11.017Z,24.05
2024-04-10T08:59:11.272Z,24.09
2024-04-10T09:00:11.023Z,24.15
2024-04-10T09:01:11.855Z,24.19
2024-04-10T09:02:11.639Z,24.23
2024-04-10T09:03:12.480Z,24.28
2024-04-10T09:04:11.738Z,24.31
2024-04-10T09:05:12.239Z,24.35
2024-04-10T09:06:11.673Z,24.38
2024-04-10T09:07:11.626Z,24.41
2024-04-10T09:08:11.430Z,24.44
2024-04-10T09:09:11.359Z,24.47
2024-04-10T09:10:12.250Z,24.51
2024-04-10T09:11:11.392Z,24.53
2024-04-10T09:12:15.773Z,24.56
2024-04-10T09:13:11.527Z,24.58
2024-04-10T09:14:11.929Z,24.62
2024-04-10T09:15:19.371Z,24.64
2024-04-10T09:16:11.439Z,24.66
2024-04-10T09:17:11.431Z,24.68
2024-04-10T09:18:11.397Z,24.71
2024-04-10T09:19:11.534Z,24.73
2024-04-10T09:20:11.260Z,24.74
2024-04-10T09:21:11.529Z,24.76
2024-04-10T09:22:11.414Z,24.78
2024-04-10T09:23:11.901Z,24.79
2024-04-10T09:24:15.874Z,24.80
2024-04-10T09:25:12.302Z,24.80
2024-04-10T09:26:11.386Z,24.82
2024-04-10T09:27:11.486Z,24.84
2024-04-10T09:28:11.329Z,24.85
2024-04-10T09:29:11.268Z,24.86
2024-04-10T09:30:11.397Z,24.88
2024-04-10T09:31:11.587Z,24.91
2024-04-10T09:32:11.395Z,24.92
2024-04-10T09:33:11.824Z,24.88
2024-04-10T09:34:11.615Z,24.72
2024-04-10T09:35:11.295Z,24.49
2024-04-10T09:36:11.744Z,24.38
2024-04-10T09:37:12.123Z,24.37
2024-04-10T09:38:11.644Z,24.38
2024-04-10T09:39:11.337Z,24.40
2024-04-10T09:40:11.284Z,24.44
2024-04-10T09:41:11.394Z,24.48
2024-04-10T09:42:11.978Z,24.51
2024-04-10T09:43:11.240Z,24.54
2024-04-10T09:44:12.003Z,24.58
2024-04-10T09:45:11.516Z,24.62
2024-04-10T09:46:11.279Z,24.65
2024-04-10T09:47:11.363Z,24.68
2024-04-10T09:48:12.683Z,24.71
2024-04-10T09:49:11.343Z,24.75
2024-04-10T09:50:11.425Z,24.78
2024-04-10T09:51:11.580Z,24.81
2024-04-10T09:52:11.375Z,24.84
2024-04-10T09:53:12.156Z,24.87
2024-04-10T09:54:11.567Z,24.90
2024-04-10T09:55:11.339Z,24.92
2024-04-10T09:56:11.407Z,24.94
2024-04-10T09:57:11.614Z,24.96
2024-04-10T09:58:11.967Z,24.97
2024-04-10T09:59:12.101Z,24.99
2024-04-10T10:00:13.579Z,24.99
2024-04-10T10:01:11.865Z,24.98
2024-04-10T10:02:12.546Z,24.93
2024-04-10T10:03:12.035Z,24.85
2024-04-10T10:04:12.362Z,24.77
2024-04-10T10:05:12.068Z,24.73
2024-04-10T10:06:12.968Z,24.69
2024-04-10T10:07:12.024Z,24.68
2024-04-10T10:08:12.268Z,24.69
2024-04-10T10:09:15.323Z,24.71
2024-04-10T10:10:12.037Z,24.72
2024-04-10T10:11:14.698Z,24.74
2024-04-10T10:12:12.890Z,24.76
2024-04-10T10:13:12.966Z,24.78
2024-04-10T10:14:12.401Z,24.80
2024-04-10T10:15:12.083Z,24.84
2024-04-10T10:16:12.069Z,24.86
2024-04-10T10:17:12.460Z,24.87
2024-04-10T10:19:12.271Z,24.91
2024-04-10T10:20:12.161Z,24.94
2024-04-10T10:21:12.894Z,24.97
2024-04-10T10:22:12.535Z,24.99
2024-04-10T10:23:12.970Z,25.01
2024-04-10T10:24:12.289Z,25.01
2024-04-10T10:25:11.996Z,25.01
2024-04-10T10:26:13.342Z,25.01
2024-04-10T10:27:13.404Z,25.01
2024-04-10T10:28:12.999Z,25.00
2024-04-10T10:29:15.013Z,24.98
2024-04-10T10:30:12.684Z,24.92
2024-04-10T10:31:12.079Z,24.90
2024-04-10T10:32:12.165Z,24.87
2024-04-10T10:33:12.259Z,24.85
2024-04-10T10:34:12.190Z,24.81
2024-04-10T10:35:13.074Z,24.79
2024-04-10T10:36:12.145Z,24.76
2024-04-10T10:37:13.361Z,24.72
2024-04-10T10:38:12.070Z,24.69
2024-04-10T10:39:12.948Z,24.66
2024-04-10T10:40:13.048Z,24.64
2024-04-10T10:41:17.646Z,24.62
2024-04-10T10:42:15.931Z,24.60
2024-04-10T10:43:12.585Z,24.60
2024-04-10T10:44:12.560Z,24.60
2024-04-10T10:45:12.085Z,24.59
2024-04-10T10:46:13.308Z,24.57
2024-04-10T10:47:12.815Z,24.55
2024-04-10T10:48:12.154Z,24.54
2024-04-10T10:49:12.537Z,24.53
2024-04-10T10:50:12.041Z,24.53
2024-04-10T10:51:12.110Z,24.56
2024-04-10T10:52:12.456Z,24.57
2024-04-10T10:53:12.582Z,24.56
2024-04-10T10:54:12.047Z,24.54
2024-04-10T10:55:11.997Z,24.52
2024-04-10T10:56:12.010Z,24.49
2024-04-10T10:57:12.051Z,24.47
2024-04-10T10:58:12.435Z,24.45
2024-04-10T10:59:13.713Z,24.46
2024-04-10T11:00:12.041Z,24.45
2024-04-10T11:01:12.972Z,24.45
2024-04-10T11:02:12.135Z,24.45
2024-04-10T11:03:17.072Z,24.45
2024-04-10T11:04:13.740Z,24.43
2024-04-10T11:05:13.140Z,24.43
2024-04-10T11:06:12.424Z,24.42
2024-04-10T11:07:12.184Z,24.41
2024-04-10T11:08:12.582Z,24.40
2024-04-10T11:09:12.158Z,24.40
2024-04-10T11:10:12.180Z,24.40
2024-04-10T11:11:14.114Z,24.42
2024-04-10T11:12:12.552Z,24.41
2024-04-10T11:13:12.185Z,24.41
2024-04-10T11:14:12.499Z,24.41
2024-04-10T11:15:12.694Z,24.40
2024-04-10T11:16:12.323Z,24.40
2024-04-10T11:17:12.355Z,24.41
2024-04-10T11:18:12.723Z,24.40
2024-04-10T11:19:13.580Z,24.39
2024-04-10T11:20:13.780Z,24.39
2024-04-10T11:21:13.448Z,24.41
2024-04-10T11:22:13.418Z,24.41
2024-04-10T11:23:13.738Z,24.43
2024-04-10T11:24:12.578Z,24.46
2024-04-10T11:25:12.643Z,24.50
2024-04-10T11:26:12.747Z,24.53
2024-04-10T11:27:12.739Z,24.56
2024-04-10T11:28:12.620Z,24.59
2024-04-10T11:29:12.677Z,24.60
2024-04-10T11:30:12.652Z,24.62
2024-04-10T11:31:12.655Z,24.63
2024-04-10T11:32:13.074Z,24.64
2024-04-10T11:33:12.828Z,24.66
2024-04-10T11:34:12.823Z,24.67
2024-04-10T11:35:12.842Z,24.68
2024-04-10T11:36:12.854Z,24.69
2024-04-10T11:37:12.920Z,24.70
2024-04-10T11:38:13.051Z,24.70
2024-04-10T11:39:13.171Z,24.71
2024-04-10T11:40:13.166Z,24.71
2024-04-10T11:41:13.160Z,24.71
2024-04-10T11:42:13.203Z,24.71
2024-04-10T11:43:13.329Z,24.72
2024-04-10T11:44:13.321Z,24.72
2024-04-10T11:45:13.334Z,24.72
2024-04-10T11:46:13.421Z,24.73
2024-04-10T11:47:13.603Z,24.72
2024-04-10T11:48:13.666Z,24.73
2024-04-10T11:49:13.815Z,24.73
2024-04-10T11:50:13.839Z,24.73
2024-04-10T11:51:13.769Z,24.73
2024-04-10T11:52:13.864Z,24.72
2024-04-10T11:53:14.005Z,24.73
2024-04-10T11:54:14.107Z,24.72
2024-04-10T11:55:14.124Z,24.72
2024-04-10T11:56:14.269Z,24.72
2024-04-10T11:57:14.204Z,24.72
2024-04-10T11:58:14.312Z,24.72
2024-04-10T11:59:14.615Z,24.71
2024-04-10T12:00:14.376Z,24.72
2024-04-10T12:01:14.609Z,24.72
2024-04-10T12:02:14.589Z,24.72
2024-04-10T12:03:14.647Z,24.72
2024-04-10T12:04:14.836Z,24.72
2024-04-10T12:05:15.867Z,24.72
2024-04-10T12:06:15.287Z,24.73
2024-04-10T12:07:14.916Z,24.74
2024-04-10T12:08:15.070Z,24.76
2024-04-10T12:09:14.973Z,24.76
2024-04-10T12:10:15.244Z,24.78
2024-04-10T12:11:15.212Z,24.80
2024-04-10T12:12:15.350Z,24.80
2024-04-10T12:13:15.259Z,24.81
2024-04-10T12:14:15.331Z,24.82
2024-04-10T12:15:15.488Z,24.83
2024-04-10T12:16:15.399Z,24.82
2024-04-10T12:17:15.629Z,24.83
2024-04-10T12:18:15.722Z,24.83
2024-04-10T12:19:16.038Z,24.83
2024-04-10T12:20:15.675Z,24.83
2024-04-10T12:21:16.130Z,24.83
2024-04-10T12:22:16.118Z,24.83
2024-04-10T12:23:15.841Z,24.82
2024-04-10T12:24:15.884Z,24.82
2024-04-10T12:25:16.001Z,24.81
2024-04-10T12:26:16.119Z,24.82
2024-04-10T12:27:17.050Z,24.81
2024-04-10T12:28:16.226Z,24.80
2024-04-10T12:29:16.771Z,24.80
2024-04-10T12:30:16.286Z,24.80
2024-04-10T12:31:16.411Z,24.80
2024-04-10T12:32:16.655Z,24.80
2024-04-10T12:33:16.625Z,24.79
2024-04-10T12:34:16.793Z,24.79
2024-04-10T12:35:16.645Z,24.79
2024-04-10T12:36:16.824Z,24.79
2024-04-10T12:37:16.898Z,24.80
2024-04-10T12:38:17.068Z,24.79
2024-04-10T12:39:16.947Z,24.80
2024-04-10T12:40:16.956Z,24.80
2024-04-10T12:41:17.127Z,24.80
2024-04-10T12:42:17.085Z,24.80
2024-04-10T12:43:17.168Z,24.80
2024-04-10T12:44:17.287Z,24.80
2024-04-10T12:45:17.320Z,24.80
2024-04-10T12:46:17.635Z,24.80
2024-04-10T12:47:17.452Z,24.80
2024-04-10T12:48:17.585Z,24.79
2024-04-10T12:49:17.520Z,24.80
2024-04-10T12:50:17.680Z,24.80
2024-04-10T12:51:17.721Z,24.79
2024-04-10T12:52:17.921Z,24.80
2024-04-10T12:53:17.841Z,24.81
2024-04-10T12:54:18.092Z,24.82
2024-04-10T12:55:17.898Z,24.82
2024-04-10T12:56:18.048Z,24.82